sensor_id;sensor_type;location;lat;lon;timestamp;pressure;altitude;pressure_sealevel;temperature;humidity
43878;BME280;29815;48.184;11.268;2023-08-06T00:02:05;94953.63;;;13.89;100.00
43878;BME280;29815;48.184;11.268;2023-08-06T00:04:34;94944.69;;;13.88;100.00
43878;BME280;29815;48.184;11.268;2023-08-06T00:07:05;94935.59;;;13.84;100.00
43878;BME280;29815;48.184;11.268;2023-08-06T00:09:35;94942.63;;;13.72;100.00
43878;BME280;29815;48.184;11.268;2023-08-06T00:12:05;94941.16;;;13.66;100.00
43878;BME280;29815;48.184;11.268;2023-08-06T00:14:35;94943.16;;;13.60;100.00
43878;BME280;29815;48.184;11.268;2023-08-06T00:17:05;94934.94;;;13.51;100.00
43878;BME280;29815;48.184;11.268;2023-08-06T00:19:35;94936.97;;;13.46;100.00
43878;BME280;29815;48.184;11.268;2023-08-06T00:22:05;94932.44;;;13.41;100.00
43878;BME280;29815;48.184;11.268;2023-08-06T00:24:35;94934.19;;;13.37;100.00
43878;BME280;29815;48.184;11.268;2023-08-06T00:27:05;94929.97;;;13.31;100.00
43878;BME280;29815;48.184;11.268;2023-08-06T00:29:35;94928.19;;;13.27;100.00
43878;BME280;29815;48.184;11.268;2023-08-06T00:32:08;94945.28;;;13.22;100.00
43878;BME280;29815;48.184;11.268;2023-08-06T00:34:38;94948.38;;;13.15;100.00
43878;BME280;29815;48.184;11.268;2023-08-06T00:37:08;94932.56;;;13.09;100.00
43878;BME280;29815;48.184;11.268;2023-08-06T00:39:37;94945.56;;;13.07;100.00
43878;BME280;29815;48.184;11.268;2023-08-06T00:42:07;94943.16;;;13.05;100.00
43878;BME280;29815;48.184;11.268;2023-08-06T00:44:37;94932.06;;;13.07;100.00
43878;BME280;29815;48.184;11.268;2023-08-06T00:47:09;94928.56;;;13.06;100.00
43878;BME280;29815;48.184;11.268;2023-08-06T00:49:41;94926.66;;;13.07;100.00
43878;BME280;29815;48.184;11.268;2023-08-06T00:52:10;94929.38;;;13.07;100.00
43878;BME280;29815;48.184;11.268;2023-08-06T00:54:41;94929.66;;;13.05;100.00
43878;BME280;29815;48.184;11.268;2023-08-06T00:57:11;94923.47;;;13.05;100.00
43878;BME280;29815;48.184;11.268;2023-08-06T00:59:41;94926.56;;;13.12;100.00
43878;BME280;29815;48.184;11.268;2023-08-06T01:02:11;94923.97;;;13.07;100.00
43878;BME280;29815;48.184;11.268;2023-08-06T01:04:42;94919.47;;;13.02;100.00
43878;BME280;29815;48.184;11.268;2023-08-06T01:07:21;94920.84;;;13.00;100.00
43878;BME280;29815;48.184;11.268;2023-08-06T01:10:19;94917.66;;;12.98;100.00
43878;BME280;29815;48.184;11.268;2023-08-06T01:13:04;94913.84;;;12.99;100.00
43878;BME280;29815;48.184;11.268;2023-08-06T01:15:46;94913.66;;;12.95;100.00
43878;BME280;29815;48.184;11.268;2023-08-06T01:18:17;94903.84;;;12.99;100.00
43878;BME280;29815;48.184;11.268;2023-08-06T01:20:48;94900.84;;;13.01;100.00
43878;BME280;29815;48.184;11.268;2023-08-06T01:23:19;94901.16;;;12.99;100.00
43878;BME280;29815;48.184;11.268;2023-08-06T01:25:57;94897.94;;;12.97;100.00
43878;BME280;29815;48.184;11.268;2023-08-06T01:28:42;94896.03;;;12.98;100.00
43878;BME280;29815;48.184;11.268;2023-08-06T01:31:22;94890.03;;;13.01;100.00
43878;BME280;29815;48.184;11.268;2023-08-06T01:33:57;94895.53;;;12.96;100.00
43878;BME280;29815;48.184;11.268;2023-08-06T01:36:30;94882.03;;;12.96;100.00
43878;BME280;29815;48.184;11.268;2023-08-06T01:39:01;94886.13;;;12.93;100.00
43878;BME280;29815;48.184;11.268;2023-08-06T01:41:30;94884.22;;;12.94;100.00
43878;BME280;29815;48.184;11.268;2023-08-06T01:44:00;94873.22;;;12.90;100.00
43878;BME280;29815;48.184;11.268;2023-08-06T01:46:30;94873.53;;;12.88;100.00
43878;BME280;29815;48.184;11.268;2023-08-06T01:49:00;94871.03;;;12.92;100.00
43878;BME280;29815;48.184;11.268;2023-08-06T01:51:30;94864.81;;;12.92;100.00
43878;BME280;29815;48.184;11.268;2023-08-06T01:54:00;94863.81;;;12.87;100.00
43878;BME280;29815;48.184;11.268;2023-08-06T01:56:29;94859.94;;;12.94;100.00
43878;BME280;29815;48.184;11.268;2023-08-06T02:02:52;94851.81;;;12.94;100.00
43878;BME280;29815;48.184;11.268;2023-08-06T02:05:21;94868.63;;;12.91;100.00
43878;BME280;29815;48.184;11.268;2023-08-06T02:07:52;94858.03;;;12.94;100.00
43878;BME280;29815;48.184;11.268;2023-08-06T02:10:22;94860.53;;;12.91;100.00
43878;BME280;29815;48.184;11.268;2023-08-06T02:12:51;94854.44;;;12.85;100.00
43878;BME280;29815;48.184;11.268;2023-08-06T02:15:21;94846.94;;;12.82;100.00
43878;BME280;29815;48.184;11.268;2023-08-06T02:17:51;94847.16;;;12.85;100.00
43878;BME280;29815;48.184;11.268;2023-08-06T02:20:21;94850.44;;;12.82;100.00
43878;BME280;29815;48.184;11.268;2023-08-06T02:22:51;94840.44;;;12.83;100.00
43878;BME280;29815;48.184;11.268;2023-08-06T02:25:21;94842.75;;;12.76;100.00
43878;BME280;29815;48.184;11.268;2023-08-06T02:27:51;94842.25;;;12.74;100.00
43878;BME280;29815;48.184;11.268;2023-08-06T02:30:20;94828.63;;;12.65;100.00
43878;BME280;29815;48.184;11.268;2023-08-06T02:32:50;94822.72;;;12.63;100.00
43878;BME280;29815;48.184;11.268;2023-08-06T02:35:19;94800.13;;;12.59;100.00
43878;BME280;29815;48.184;11.268;2023-08-06T02:37:49;94798.84;;;12.57;100.00
43878;BME280;29815;48.184;11.268;2023-08-06T02:40:20;94808.44;;;12.63;100.00
43878;BME280;29815;48.184;11.268;2023-08-06T02:42:50;94815.72;;;12.62;100.00
43878;BME280;29815;48.184;11.268;2023-08-06T02:45:20;94808.22;;;12.59;100.00
43878;BME280;29815;48.184;11.268;2023-08-06T02:47:49;94809.53;;;12.62;100.00
43878;BME280;29815;48.184;11.268;2023-08-06T02:50:19;94799.75;;;12.52;100.00
43878;BME280;29815;48.184;11.268;2023-08-06T02:52:49;94806.53;;;12.49;100.00
43878;BME280;29815;48.184;11.268;2023-08-06T02:55:20;94807.75;;;12.43;100.00
43878;BME280;29815;48.184;11.268;2023-08-06T02:57:50;94807.16;;;12.46;100.00
43878;BME280;29815;48.184;11.268;2023-08-06T03:00:20;94818.22;;;12.45;100.00
43878;BME280;29815;48.184;11.268;2023-08-06T03:02:50;94819.03;;;12.45;100.00
43878;BME280;29815;48.184;11.268;2023-08-06T03:05:39;94823.63;;;12.45;100.00
43878;BME280;29815;48.184;11.268;2023-08-06T03:08:09;94822.91;;;12.39;100.00
43878;BME280;29815;48.184;11.268;2023-08-06T03:10:40;94815.25;;;12.46;100.00
43878;BME280;29815;48.184;11.268;2023-08-06T03:13:11;94808.53;;;12.44;100.00
43878;BME280;29815;48.184;11.268;2023-08-06T03:15:40;94807.81;;;12.38;100.00
43878;BME280;29815;48.184;11.268;2023-08-06T03:18:12;94807.75;;;12.43;100.00
43878;BME280;29815;48.184;11.268;2023-08-06T03:20:42;94804.03;;;12.39;100.00
43878;BME280;29815;48.184;11.268;2023-08-06T03:23:11;94810.31;;;12.35;100.00
43878;BME280;29815;48.184;11.268;2023-08-06T03:25:43;94797.75;;;12.30;100.00
43878;BME280;29815;48.184;11.268;2023-08-06T03:28:14;94793.44;;;12.29;100.00
43878;BME280;29815;48.184;11.268;2023-08-06T03:30:44;94793.16;;;12.31;100.00
43878;BME280;29815;48.184;11.268;2023-08-06T03:33:14;94791.72;;;12.33;100.00
43878;BME280;29815;48.184;11.268;2023-08-06T03:35:45;94792.94;;;12.41;100.00
43878;BME280;29815;48.184;11.268;2023-08-06T03:38:14;94797.44;;;12.45;100.00
43878;BME280;29815;48.184;11.268;2023-08-06T03:40:46;94803.81;;;12.36;100.00
43878;BME280;29815;48.184;11.268;2023-08-06T03:43:16;94799.66;;;12.30;100.00
43878;BME280;29815;48.184;11.268;2023-08-06T03:45:46;94803.75;;;12.27;100.00
43878;BME280;29815;48.184;11.268;2023-08-06T03:48:16;94806.44;;;12.27;100.00
43878;BME280;29815;48.184;11.268;2023-08-06T03:50:45;94807.91;;;12.33;100.00
43878;BME280;29815;48.184;11.268;2023-08-06T03:53:18;94807.63;;;12.35;100.00
43878;BME280;29815;48.184;11.268;2023-08-06T03:55:49;94806.81;;;12.34;100.00
43878;BME280;29815;48.184;11.268;2023-08-06T03:58:18;94802.81;;;12.32;100.00
43878;BME280;29815;48.184;11.268;2023-08-06T04:00:48;94798.84;;;12.29;100.00
43878;BME280;29815;48.184;11.268;2023-08-06T04:03:17;94796.16;;;12.29;100.00
43878;BME280;29815;48.184;11.268;2023-08-06T04:05:47;94795.72;;;12.36;100.00
43878;BME280;29815;48.184;11.268;2023-08-06T04:08:17;94805.22;;;12.33;100.00
43878;BME280;29815;48.184;11.268;2023-08-06T04:10:52;94805.03;;;12.30;100.00
43878;BME280;29815;48.184;11.268;2023-08-06T04:13:22;94805.84;;;12.30;100.00
43878;BME280;29815;48.184;11.268;2023-08-06T04:15:51;94800.13;;;12.32;100.00
43878;BME280;29815;48.184;11.268;2023-08-06T04:18:22;94809.34;;;12.31;100.00
43878;BME280;29815;48.184;11.268;2023-08-06T04:20:53;94814.31;;;12.37;100.00
43878;BME280;29815;48.184;11.268;2023-08-06T04:23:23;94809.22;;;12.36;100.00
43878;BME280;29815;48.184;11.268;2023-08-06T04:25:58;94804.31;;;12.38;100.00
43878;BME280;29815;48.184;11.268;2023-08-06T04:28:31;94797.44;;;12.45;100.00
43878;BME280;29815;48.184;11.268;2023-08-06T04:31:01;94801.94;;;12.50;100.00
43878;BME280;29815;48.184;11.268;2023-08-06T04:33:33;94807.66;;;12.48;100.00
43878;BME280;29815;48.184;11.268;2023-08-06T04:36:09;94808.06;;;12.56;100.00
43878;BME280;29815;48.184;11.268;2023-08-06T04:38:39;94812.34;;;12.57;100.00
43878;BME280;29815;48.184;11.268;2023-08-06T04:41:14;94800.94;;;12.60;100.00
43878;BME280;29815;48.184;11.268;2023-08-06T04:43:43;94811.63;;;12.65;100.00
43878;BME280;29815;48.184;11.268;2023-08-06T04:46:13;94807.13;;;12.60;100.00
43878;BME280;29815;48.184;11.268;2023-08-06T04:48:43;94808.72;;;12.61;100.00
43878;BME280;29815;48.184;11.268;2023-08-06T04:51:12;94811.13;;;12.63;100.00
43878;BME280;29815;48.184;11.268;2023-08-06T04:53:42;94803.53;;;12.65;100.00
43878;BME280;29815;48.184;11.268;2023-08-06T04:56:13;94794.63;;;12.64;100.00
43878;BME280;29815;48.184;11.268;2023-08-06T04:58:42;94809.44;;;12.67;100.00
43878;BME280;29815;48.184;11.268;2023-08-06T05:01:12;94805.63;;;12.68;100.00
43878;BME280;29815;48.184;11.268;2023-08-06T05:03:41;94812.44;;;12.65;100.00
43878;BME280;29815;48.184;11.268;2023-08-06T05:06:11;94807.03;;;12.65;100.00
43878;BME280;29815;48.184;11.268;2023-08-06T05:08:40;94807.13;;;12.60;100.00
43878;BME280;29815;48.184;11.268;2023-08-06T05:11:10;94805.72;;;12.63;100.00
43878;BME280;29815;48.184;11.268;2023-08-06T05:13:41;94805.44;;;12.64;100.00
43878;BME280;29815;48.184;11.268;2023-08-06T05:16:11;94803.03;;;12.63;100.00
43878;BME280;29815;48.184;11.268;2023-08-06T05:18:40;94804.34;;;12.65;100.00
43878;BME280;29815;48.184;11.268;2023-08-06T05:21:10;94802.13;;;12.67;100.00
43878;BME280;29815;48.184;11.268;2023-08-06T05:23:39;94806.13;;;12.70;100.00
43878;BME280;29815;48.184;11.268;2023-08-06T05:26:09;94797.44;;;12.73;100.00
43878;BME280;29815;48.184;11.268;2023-08-06T05:28:38;94793.13;;;12.72;100.00
43878;BME280;29815;48.184;11.268;2023-08-06T05:31:10;94790.94;;;12.74;100.00
43878;BME280;29815;48.184;11.268;2023-08-06T05:33:40;94791.53;;;12.71;100.00
43878;BME280;29815;48.184;11.268;2023-08-06T05:36:09;94785.84;;;12.72;100.00
43878;BME280;29815;48.184;11.268;2023-08-06T05:38:39;94781.84;;;12.70;100.00
43878;BME280;29815;48.184;11.268;2023-08-06T05:41:09;94791.25;;;12.72;100.00
43878;BME280;29815;48.184;11.268;2023-08-06T05:43:38;94794.75;;;12.73;100.00
43878;BME280;29815;48.184;11.268;2023-08-06T05:46:09;94793.03;;;12.77;100.00
43878;BME280;29815;48.184;11.268;2023-08-06T05:48:39;94795.44;;;12.78;100.00
43878;BME280;29815;48.184;11.268;2023-08-06T05:51:08;94799.13;;;12.82;100.00
43878;BME280;29815;48.184;11.268;2023-08-06T05:53:40;94791.00;;;12.96;100.00
43878;BME280;29815;48.184;11.268;2023-08-06T05:56:10;94788.97;;;13.15;100.00
43878;BME280;29815;48.184;11.268;2023-08-06T05:58:39;94792.75;;;13.28;100.00
43878;BME280;29815;48.184;11.268;2023-08-06T06:01:10;94780.94;;;13.38;100.00
43878;BME280;29815;48.184;11.268;2023-08-06T06:03:40;94792.41;;;13.43;100.00
43878;BME280;29815;48.184;11.268;2023-08-06T06:06:09;94788.28;;;13.46;100.00
43878;BME280;29815;48.184;11.268;2023-08-06T06:08:39;94793.16;;;13.58;100.00
43878;BME280;29815;48.184;11.268;2023-08-06T06:11:08;94792.44;;;13.66;100.00
43878;BME280;29815;48.184;11.268;2023-08-06T06:13:38;94793.88;;;13.72;100.00
43878;BME280;29815;48.184;11.268;2023-08-06T06:16:07;94795.00;;;13.71;100.00
43878;BME280;29815;48.184;11.268;2023-08-06T06:18:39;94798.19;;;13.73;100.00
43878;BME280;29815;48.184;11.268;2023-08-06T06:21:09;94789.66;;;13.79;100.00
43878;BME280;29815;48.184;11.268;2023-08-06T06:23:38;94792.84;;;13.81;100.00
43878;BME280;29815;48.184;11.268;2023-08-06T06:26:08;94796.34;;;13.82;100.00
43878;BME280;29815;48.184;11.268;2023-08-06T06:28:38;94801.03;;;13.90;100.00
43878;BME280;29815;48.184;11.268;2023-08-06T06:31:07;94793.75;;;13.99;100.00
43878;BME280;29815;48.184;11.268;2023-08-06T06:33:38;94788.38;;;14.08;100.00
43878;BME280;29815;48.184;11.268;2023-08-06T06:36:08;94794.06;;;14.29;100.00
43878;BME280;29815;48.184;11.268;2023-08-06T06:38:38;94796.41;;;14.44;100.00
43878;BME280;29815;48.184;11.268;2023-08-06T06:41:07;94791.78;;;14.53;100.00
43878;BME280;29815;48.184;11.268;2023-08-06T06:43:37;94800.75;;;14.62;100.00
43878;BME280;29815;48.184;11.268;2023-08-06T06:46:07;94808.31;;;14.82;100.00
43878;BME280;29815;48.184;11.268;2023-08-06T06:48:38;94792.13;;;15.00;100.00
43878;BME280;29815;48.184;11.268;2023-08-06T06:51:08;94794.34;;;15.15;100.00
43878;BME280;29815;48.184;11.268;2023-08-06T06:53:37;94795.66;;;15.26;100.00
43878;BME280;29815;48.184;11.268;2023-08-06T06:56:07;94784.66;;;15.31;100.00
43878;BME280;29815;48.184;11.268;2023-08-06T06:58:37;94792.78;;;15.40;100.00
43878;BME280;29815;48.184;11.268;2023-08-06T07:01:07;94806.34;;;15.31;100.00
43878;BME280;29815;48.184;11.268;2023-08-06T07:03:39;94795.81;;;15.21;100.00
43878;BME280;29815;48.184;11.268;2023-08-06T07:06:09;94800.38;;;14.95;100.00
43878;BME280;29815;48.184;11.268;2023-08-06T07:08:40;94798.59;;;14.81;100.00
43878;BME280;29815;48.184;11.268;2023-08-06T07:11:09;94791.97;;;14.56;100.00
43878;BME280;29815;48.184;11.268;2023-08-06T07:13:39;94792.69;;;14.40;100.00
43878;BME280;29815;48.184;11.268;2023-08-06T07:16:08;94794.84;;;14.20;100.00
43878;BME280;29815;48.184;11.268;2023-08-06T07:18:40;94796.81;;;14.06;100.00
43878;BME280;29815;48.184;11.268;2023-08-06T07:21:09;94790.06;;;13.95;100.00
43878;BME280;29815;48.184;11.268;2023-08-06T07:23:39;94784.50;;;14.00;100.00
43878;BME280;29815;48.184;11.268;2023-08-06T07:26:08;94786.13;;;14.01;100.00
43878;BME280;29815;48.184;11.268;2023-08-06T07:28:38;94783.91;;;14.03;100.00
43878;BME280;29815;48.184;11.268;2023-08-06T07:31:08;94785.31;;;14.01;100.00
43878;BME280;29815;48.184;11.268;2023-08-06T07:33:41;94781.38;;;14.07;100.00
43878;BME280;29815;48.184;11.268;2023-08-06T07:36:13;94790.59;;;14.06;100.00
43878;BME280;29815;48.184;11.268;2023-08-06T07:38:43;94788.63;;;14.20;100.00
43878;BME280;29815;48.184;11.268;2023-08-06T07:41:12;94787.22;;;14.31;100.00
43878;BME280;29815;48.184;11.268;2023-08-06T07:43:42;94801.03;;;14.43;100.00
43878;BME280;29815;48.184;11.268;2023-08-06T07:46:12;94798.81;;;14.54;100.00
43878;BME280;29815;48.184;11.268;2023-08-06T07:48:43;94798.72;;;14.68;100.00
43878;BME280;29815;48.184;11.268;2023-08-06T07:51:12;94791.56;;;14.80;100.00
43878;BME280;29815;48.184;11.268;2023-08-06T07:53:42;94795.41;;;14.88;100.00
43878;BME280;29815;48.184;11.268;2023-08-06T07:56:12;94796.59;;;15.04;100.00
43878;BME280;29815;48.184;11.268;2023-08-06T07:58:41;94795.00;;;15.03;100.00
43878;BME280;29815;48.184;11.268;2023-08-06T08:01:11;94795.63;;;15.09;100.00
43878;BME280;29815;48.184;11.268;2023-08-06T08:03:40;94798.19;;;15.14;100.00
43878;BME280;29815;48.184;11.268;2023-08-06T08:06:11;94795.81;;;15.21;100.00
43878;BME280;29815;48.184;11.268;2023-08-06T08:08:41;94794.38;;;15.23;100.00
43878;BME280;29815;48.184;11.268;2023-08-06T08:11:10;94782.91;;;15.27;100.00
43878;BME280;29815;48.184;11.268;2023-08-06T08:13:40;94783.53;;;15.23;100.00
43878;BME280;29815;48.184;11.268;2023-08-06T08:16:09;94783.84;;;15.22;100.00
43878;BME280;29815;48.184;11.268;2023-08-06T08:18:39;94794.22;;;15.20;100.00
43878;BME280;29815;48.184;11.268;2023-08-06T08:21:09;94797.72;;;15.20;100.00
43878;BME280;29815;48.184;11.268;2023-08-06T08:23:41;94792.44;;;15.15;100.00
43878;BME280;29815;48.184;11.268;2023-08-06T08:26:11;94795.97;;;15.24;100.00
43878;BME280;29815;48.184;11.268;2023-08-06T08:28:41;94778.44;;;15.31;100.00
43878;BME280;29815;48.184;11.268;2023-08-06T08:31:11;94779.53;;;15.38;100.00
43878;BME280;29815;48.184;11.268;2023-08-06T08:33:41;94779.88;;;15.37;100.00
43878;BME280;29815;48.184;11.268;2023-08-06T08:36:12;94781.63;;;15.41;100.00
43878;BME280;29815;48.184;11.268;2023-08-06T08:38:42;94779.25;;;15.48;100.00
43878;BME280;29815;48.184;11.268;2023-08-06T08:41:11;94807.47;;;15.47;100.00
43878;BME280;29815;48.184;11.268;2023-08-06T08:43:42;94799.03;;;15.49;100.00
43878;BME280;29815;48.184;11.268;2023-08-06T08:46:13;94789.94;;;15.53;100.00
43878;BME280;29815;48.184;11.268;2023-08-06T08:48:43;94795.56;;;15.57;100.00
43878;BME280;29815;48.184;11.268;2023-08-06T08:51:15;94794.75;;;15.56;100.00
43878;BME280;29815;48.184;11.268;2023-08-06T08:53:46;94799.81;;;15.41;100.00
43878;BME280;29815;48.184;11.268;2023-08-06T08:56:16;94800.94;;;15.31;100.00
43878;BME280;29815;48.184;11.268;2023-08-06T08:58:46;94812.91;;;15.30;100.00
43878;BME280;29815;48.184;11.268;2023-08-06T09:01:16;94825.16;;;15.19;100.00
43878;BME280;29815;48.184;11.268;2023-08-06T09:03:46;94799.81;;;15.23;100.00
43878;BME280;29815;48.184;11.268;2023-08-06T09:06:17;94804.09;;;15.16;100.00
43878;BME280;29815;48.184;11.268;2023-08-06T09:09:04;94819.34;;;14.95;100.00
43878;BME280;29815;48.184;11.268;2023-08-06T09:11:40;94814.25;;;14.93;100.00
43878;BME280;29815;48.184;11.268;2023-08-06T09:14:12;94810.88;;;14.87;100.00
43878;BME280;29815;48.184;11.268;2023-08-06T09:16:41;94810.72;;;14.84;100.00
43878;BME280;29815;48.184;11.268;2023-08-06T09:19:12;94814.69;;;14.86;100.00
43878;BME280;29815;48.184;11.268;2023-08-06T09:21:46;94814.41;;;14.97;100.00
43878;BME280;29815;48.184;11.268;2023-08-06T09:24:17;94815.09;;;15.19;100.00
43878;BME280;29815;48.184;11.268;2023-08-06T09:26:46;94804.44;;;15.32;100.00
43878;BME280;29815;48.184;11.268;2023-08-06T09:29:16;94804.09;;;15.33;100.00
43878;BME280;29815;48.184;11.268;2023-08-06T09:31:47;94809.06;;;15.40;100.00
43878;BME280;29815;48.184;11.268;2023-08-06T09:34:19;94808.09;;;15.44;100.00
43878;BME280;29815;48.184;11.268;2023-08-06T09:36:52;94813.06;;;15.60;100.00
43878;BME280;29815;48.184;11.268;2023-08-06T09:39:28;94820.09;;;15.86;100.00
43878;BME280;29815;48.184;11.268;2023-08-06T09:42:00;94808.91;;;15.88;100.00
43878;BME280;29815;48.184;11.268;2023-08-06T09:44:32;94830.13;;;15.95;100.00
43878;BME280;29815;48.184;11.268;2023-08-06T09:47:03;94800.47;;;15.72;100.00
43878;BME280;29815;48.184;11.268;2023-08-06T09:49:43;94810.50;;;15.54;100.00
43878;BME280;29815;48.184;11.268;2023-08-06T09:52:15;94827.28;;;15.65;100.00
43878;BME280;29815;48.184;11.268;2023-08-06T09:54:45;94818.69;;;15.80;100.00
43878;BME280;29815;48.184;11.268;2023-08-06T09:57:17;94804.47;;;15.83;100.00
43878;BME280;29815;48.184;11.268;2023-08-06T09:59:47;94816.75;;;15.81;100.00
43878;BME280;29815;48.184;11.268;2023-08-06T10:02:17;94819.91;;;16.09;100.00
43878;BME280;29815;48.184;11.268;2023-08-06T10:04:48;94810.75;;;16.31;100.00
43878;BME280;29815;48.184;11.268;2023-08-06T10:07:24;94833.13;;;16.36;100.00
43878;BME280;29815;48.184;11.268;2023-08-06T10:09:54;94826.56;;;16.37;100.00
43878;BME280;29815;48.184;11.268;2023-08-06T10:12:24;94815.88;;;16.32;100.00
43878;BME280;29815;48.184;11.268;2023-08-06T10:14:57;94817.69;;;16.11;100.00
43878;BME280;29815;48.184;11.268;2023-08-06T10:17:30;94820.09;;;15.95;100.00
43878;BME280;29815;48.184;11.268;2023-08-06T10:20:17;94825.03;;;16.02;100.00
43878;BME280;29815;48.184;11.268;2023-08-06T10:23:01;94823.31;;;15.80;100.00
43878;BME280;29815;48.184;11.268;2023-08-06T10:25:32;94831.91;;;15.73;100.00
43878;BME280;29815;48.184;11.268;2023-08-06T10:28:08;94836.69;;;15.68;100.00
43878;BME280;29815;48.184;11.268;2023-08-06T10:30:42;94837.34;;;15.56;100.00
43878;BME280;29815;48.184;11.268;2023-08-06T10:33:14;94832.72;;;15.56;100.00
43878;BME280;29815;48.184;11.268;2023-08-06T10:35:46;94846.44;;;15.77;100.00
43878;BME280;29815;48.184;11.268;2023-08-06T10:38:21;94839.72;;;16.01;100.00
43878;BME280;29815;48.184;11.268;2023-08-06T10:41:02;94844.16;;;16.31;100.00
43878;BME280;29815;48.184;11.268;2023-08-06T10:43:34;94837.75;;;16.36;100.00
43878;BME280;29815;48.184;11.268;2023-08-06T10:46:10;94827.78;;;16.48;100.00
43878;BME280;29815;48.184;11.268;2023-08-06T10:48:43;94820.75;;;16.56;100.00
43878;BME280;29815;48.184;11.268;2023-08-06T10:51:15;94831.94;;;16.54;100.00
43878;BME280;29815;48.184;11.268;2023-08-06T10:53:47;94833.13;;;16.19;100.00
43878;BME280;29815;48.184;11.268;2023-08-06T10:56:18;94841.91;;;16.24;100.00
43878;BME280;29815;48.184;11.268;2023-08-06T10:58:51;94835.88;;;16.02;100.00
43878;BME280;29815;48.184;11.268;2023-08-06T11:01:23;94848.19;;;16.08;100.00
43878;BME280;29815;48.184;11.268;2023-08-06T11:03:53;94842.13;;;16.11;100.00
43878;BME280;29815;48.184;11.268;2023-08-06T11:06:23;94830.78;;;15.91;100.00
43878;BME280;29815;48.184;11.268;2023-08-06T11:08:55;94842.44;;;16.01;100.00
43878;BME280;29815;48.184;11.268;2023-08-06T11:11:25;94836.66;;;16.19;100.00
43878;BME280;29815;48.184;11.268;2023-08-06T11:13:55;94852.66;;;16.12;100.00
43878;BME280;29815;48.184;11.268;2023-08-06T11:16:24;94839.44;;;15.85;100.00
43878;BME280;29815;48.184;11.268;2023-08-06T11:18:55;94847.88;;;15.57;100.00
43878;BME280;29815;48.184;11.268;2023-08-06T11:21:25;94847.19;;;15.52;100.00
43878;BME280;29815;48.184;11.268;2023-08-06T11:23:57;94842.72;;;15.39;100.00
43878;BME280;29815;48.184;11.268;2023-08-06T11:26:26;94856.72;;;15.32;100.00
43878;BME280;29815;48.184;11.268;2023-08-06T11:28:57;94836.66;;;15.50;100.00
43878;BME280;29815;48.184;11.268;2023-08-06T11:31:26;94837.50;;;15.77;100.00
43878;BME280;29815;48.184;11.268;2023-08-06T11:33:56;94837.81;;;16.10;100.00
43878;BME280;29815;48.184;11.268;2023-08-06T11:36:29;94840.91;;;16.64;100.00
43878;BME280;29815;48.184;11.268;2023-08-06T11:39:02;94840.38;;;16.62;100.00
43878;BME280;29815;48.184;11.268;2023-08-06T11:41:33;94847.13;;;16.55;100.00
43878;BME280;29815;48.184;11.268;2023-08-06T11:44:04;94844.09;;;16.66;100.00
43878;BME280;29815;48.184;11.268;2023-08-06T11:46:51;94850.91;;;16.72;100.00
43878;BME280;29815;48.184;11.268;2023-08-06T11:49:39;94875.03;;;16.82;100.00
43878;BME280;29815;48.184;11.268;2023-08-06T11:52:13;94872.69;;;16.54;100.00
43878;BME280;29815;48.184;11.268;2023-08-06T11:55:00;94864.22;;;16.47;100.00
43878;BME280;29815;48.184;11.268;2023-08-06T11:57:35;94862.34;;;16.39;100.00
43878;BME280;29815;48.184;11.268;2023-08-06T12:00:07;94859.31;;;16.23;100.00
43878;BME280;29815;48.184;11.268;2023-08-06T12:02:44;94853.28;;;16.09;100.00
43878;BME280;29815;48.184;11.268;2023-08-06T12:05:16;94849.44;;;16.19;100.00
43878;BME280;29815;48.184;11.268;2023-08-06T12:07:51;94855.97;;;16.18;100.00
43878;BME280;29815;48.184;11.268;2023-08-06T12:10:27;94855.31;;;16.30;100.00
43878;BME280;29815;48.184;11.268;2023-08-06T12:12:59;94858.84;;;16.39;100.00
43878;BME280;29815;48.184;11.268;2023-08-06T12:15:29;94854.16;;;16.48;100.00
43878;BME280;29815;48.184;11.268;2023-08-06T12:18:01;94865.56;;;16.24;100.00
43878;BME280;29815;48.184;11.268;2023-08-06T12:20:31;94858.16;;;16.42;100.00
43878;BME280;29815;48.184;11.268;2023-08-06T12:23:00;94864.22;;;16.47;100.00
43878;BME280;29815;48.184;11.268;2023-08-06T12:25:31;94875.13;;;16.39;100.00
43878;BME280;29815;48.184;11.268;2023-08-06T12:28:01;94891.59;;;16.16;100.00
43878;BME280;29815;48.184;11.268;2023-08-06T12:30:30;94883.47;;;15.90;100.00
43878;BME280;29815;48.184;11.268;2023-08-06T12:33:00;94889.38;;;15.84;100.00
43878;BME280;29815;48.184;11.268;2023-08-06T12:35:30;94902.78;;;15.72;100.00
43878;BME280;29815;48.184;11.268;2023-08-06T12:37:59;94887.25;;;15.55;100.00
43878;BME280;29815;48.184;11.268;2023-08-06T12:40:30;94884.84;;;15.53;100.00
43878;BME280;29815;48.184;11.268;2023-08-06T12:43:06;94881.38;;;15.62;100.00
43878;BME280;29815;48.184;11.268;2023-08-06T12:45:36;94897.50;;;15.58;100.00
43878;BME280;29815;48.184;11.268;2023-08-06T12:48:05;94881.34;;;15.53;100.00
43878;BME280;29815;48.184;11.268;2023-08-06T12:50:35;94886.97;;;15.91;100.00
43878;BME280;29815;48.184;11.268;2023-08-06T12:53:05;94893.13;;;16.52;100.00
43878;BME280;29815;48.184;11.268;2023-08-06T12:55:36;94878.56;;;16.74;100.00
43878;BME280;29815;48.184;11.268;2023-08-06T12:58:05;94900.94;;;16.79;100.00
43878;BME280;29815;48.184;11.268;2023-08-06T13:00:35;94913.16;;;16.04;100.00
43878;BME280;29815;48.184;11.268;2023-08-06T13:03:05;94899.34;;;15.49;100.00
43878;BME280;29815;48.184;11.268;2023-08-06T13:05:35;94905.06;;;15.30;100.00